Time;durP1;ratioP1;P1;durP2;ratioP2;P2;SDS_P1;SDS_P2;PMS_P1;PMS_P2;Temp;Humidity;BMP_temperature;BMP_pressure;BME280_temperature;BME280_humidity;BME280_pressure;Samples;Min_cycle;Max_cycle;Signal;HPM_P1;HPM_P2
2022/08/07 00:01:34;;;;;;;10.73;6.47;;;13.90;99.90;;;;;;5074304;28;20372;-58
2022/08/07 00:04:00;;;;;;;6.93;6.03;;;14.00;99.90;;;;;;5074254;28;20048;-58
2022/08/07 00:06:26;;;;;;;8.05;6.75;;;13.80;99.90;;;;;;5073851;28;20466;-59
2022/08/07 00:08:52;;;;;;;10.25;7.30;;;13.70;99.90;;;;;;5074008;28;20032;-58
2022/08/07 00:11:17;;;;;;;7.97;6.35;;;13.60;99.90;;;;;;5073908;28;20340;-58
2022/08/07 00:13:44;;;;;;;7.80;7.00;;;13.50;99.90;;;;;;5073634;28;20029;-58
2022/08/07 00:16:11;;;;;;;10.50;6.40;;;13.50;99.90;;;;;;5074169;28;20387;-58
2022/08/07 00:18:37;;;;;;;8.80;7.10;;;13.40;99.90;;;;;;5074187;28;20036;-58
2022/08/07 00:21:05;;;;;;;9.90;6.80;;;13.40;99.90;;;;;;5073797;28;20048;-58
2022/08/07 00:23:32;;;;;;;9.98;6.78;;;13.40;99.90;;;;;;5073868;28;20041;-57
2022/08/07 00:26:00;;;;;;;9.30;7.18;;;13.40;99.90;;;;;;5073779;28;20036;-58
2022/08/07 00:28:26;;;;;;;9.10;6.47;;;13.40;99.90;;;;;;5074050;28;20105;-58
2022/08/07 00:30:52;;;;;;;9.50;7.50;;;13.30;99.90;;;;;;5073915;28;20032;-57
2022/08/07 00:33:17;;;;;;;7.35;6.05;;;13.40;99.90;;;;;;5073632;28;20051;-58
2022/08/07 00:35:43;;;;;;;9.70;6.43;;;13.30;99.90;;;;;;5073358;28;20048;-58
2022/08/07 00:38:09;;;;;;;7.47;6.78;;;13.30;99.90;;;;;;5073705;28;20044;-58
2022/08/07 00:40:34;;;;;;;7.40;6.22;;;13.30;99.90;;;;;;5073420;28;20064;-58
2022/08/07 00:43:00;;;;;;;7.57;6.63;;;13.40;99.90;;;;;;5073671;28;20056;-58
2022/08/07 00:45:27;;;;;;;9.60;7.10;;;13.30;99.90;;;;;;5073804;28;20115;-58
2022/08/07 00:47:53;;;;;;;7.93;7.10;;;13.30;99.90;;;;;;5073188;28;20047;-58
2022/08/07 00:50:19;;;;;;;6.20;5.60;;;13.30;99.90;;;;;;5073294;28;20040;-58
2022/08/07 00:52:44;;;;;;;9.32;7.05;;;13.30;99.90;;;;;;5073347;28;20039;-57
2022/08/07 00:55:10;;;;;;;7.65;6.70;;;13.30;99.90;;;;;;5073666;28;20399;-58
2022/08/07 00:57:36;;;;;;;7.80;6.97;;;13.20;99.90;;;;;;5073301;28;20036;-59
2022/08/07 01:00:05;;;;;;;6.93;6.22;;;13.20;99.90;;;;;;5073143;28;20565;-59
2022/08/07 01:02:31;;;;;;;7.70;6.68;;;13.10;99.90;;;;;;5073258;28;20092;-59
2022/08/07 01:04:57;;;;;;;7.13;6.43;;;13.10;99.90;;;;;;5073271;28;20045;-58
2022/08/07 01:07:23;;;;;;;7.82;6.75;;;13.10;99.90;;;;;;5073422;28;20111;-58
2022/08/07 01:09:49;;;;;;;8.40;6.63;;;13.20;99.90;;;;;;5073561;28;20132;-58
2022/08/07 01:12:15;;;;;;;7.57;6.43;;;13.10;99.90;;;;;;5073936;28;20098;-58
2022/08/07 01:14:41;;;;;;;9.70;7.38;;;13.10;99.90;;;;;;5056766;28;20029;-58
2022/08/07 01:17:09;;;;;;;7.20;6.43;;;13.10;99.90;;;;;;5056611;28;20094;-58
2022/08/07 01:19:35;;;;;;;7.75;6.93;;;13.10;99.90;;;;;;5056604;28;20483;-58
2022/08/07 01:22:02;;;;;;;6.53;5.70;;;13.00;99.90;;;;;;5055746;28;20099;-58
2022/08/07 01:24:28;;;;;;;8.50;6.38;;;13.00;99.90;;;;;;5056984;28;20037;-59
2022/08/07 01:26:54;;;;;;;7.85;6.15;;;13.10;99.90;;;;;;5056899;28;20048;-58
2022/08/07 01:29:24;;;;;;;8.25;5.60;;;13.20;99.90;;;;;;5056895;28;20410;-58
2022/08/07 01:31:51;;;;;;;7.85;5.60;;;13.10;99.90;;;;;;5056562;28;20064;-58
2022/08/07 01:34:17;;;;;;;6.18;5.57;;;13.10;99.90;;;;;;5056588;28;20037;-58
2022/08/07 01:36:44;;;;;;;7.38;5.75;;;13.10;99.90;;;;;;5056561;28;20484;-58
2022/08/07 01:39:10;;;;;;;6.78;5.30;;;13.10;99.90;;;;;;5056743;28;20492;-58
2022/08/07 01:41:38;;;;;;;5.85;5.18;;;13.10;99.90;;;;;;5055973;28;20134;-58
2022/08/07 01:44:04;;;;;;;9.15;5.68;;;13.10;99.90;;;;;;5056359;28;20363;-58
2022/08/07 01:46:30;;;;;;;5.57;4.85;;;13.20;99.90;;;;;;5056304;28;20300;-58
2022/08/07 01:48:55;;;;;;;5.50;4.70;;;13.00;99.90;;;;;;5056391;28;20041;-58
2022/08/07 01:51:23;;;;;;;5.57;4.65;;;13.00;99.90;;;;;;5056427;28;20044;-58
2022/08/07 01:53:56;;;;;;;6.68;5.90;;;13.00;99.90;;;;;;5056218;28;20485;-59
2022/08/07 01:56:26;;;;;;;5.88;5.25;;;12.90;99.90;;;;;;5056493;28;20112;-59
2022/08/07 01:59:06;;;;;;;7.20;5.50;;;12.90;99.90;;;;;;5055857;28;20485;-58
2022/08/07 02:01:36;;;;;;;6.47;5.35;;;12.80;99.90;;;;;;5055995;28;20464;-58
2022/08/07 02:04:14;;;;;;;5.47;4.60;;;12.80;99.90;;;;;;5056242;28;20045;-59
2022/08/07 02:06:41;;;;;;;6.22;4.00;;;12.80;99.90;;;;;;5055720;28;20487;-58
2022/08/07 02:09:10;;;;;;;5.70;5.10;;;12.70;99.90;;;;;;5055537;28;20125;-59
2022/08/07 02:11:37;;;;;;;;;;;12.70;99.90;;;;;;5056330;28;20037;-59
2022/08/07 02:14:06;;;;;;;6.72;4.97;;;12.80;99.90;;;;;;5054607;28;19917;-59
2022/08/07 02:16:33;;;;;;;9.05;5.88;;;12.60;99.90;;;;;;5056009;28;20048;-59
2022/08/07 02:19:05;;;;;;;8.90;6.40;;;12.60;99.90;;;;;;5055961;28;20081;-59
2022/08/07 02:21:31;;;;;;;8.57;5.97;;;12.50;99.90;;;;;;5055510;28;20048;-59
2022/08/07 02:23:58;;;;;;;10.77;5.80;;;12.50;99.90;;;;;;5054509;28;20041;-59
2022/08/07 02:26:26;;;;;;;5.47;4.68;;;12.60;99.90;;;;;;5055304;28;20467;-58
2022/08/07 02:28:52;;;;;;;6.90;5.57;;;12.60;99.90;;;;;;5055730;28;20116;-59
2022/08/07 02:31:19;;;;;;;6.00;5.22;;;12.60;99.90;;;;;;5055629;28;20052;-59
2022/08/07 02:33:46;;;;;;;6.50;5.40;;;12.60;99.90;;;;;;5055750;28;20072;-59
2022/08/07 02:36:12;;;;;;;8.50;5.55;;;12.50;99.90;;;;;;5055308;28;20115;-59
2022/08/07 02:38:39;;;;;;;8.00;5.88;;;12.40;99.90;;;;;;5055192;28;20047;-58
2022/08/07 02:41:05;;;;;;;7.43;6.38;;;12.40;99.90;;;;;;5054876;28;20132;-59
2022/08/07 02:43:34;;;;;;;6.40;5.70;;;12.40;99.90;;;;;;5055444;28;20045;-57
2022/08/07 02:46:02;;;;;;;6.60;5.88;;;12.40;99.90;;;;;;5055423;28;20043;-57
2022/08/07 02:48:28;;;;;;;9.10;5.78;;;12.50;99.90;;;;;;5055429;28;20468;-57
2022/08/07 02:50:54;;;;;;;7.32;5.90;;;12.50;99.90;;;;;;5055050;28;20036;-58
2022/08/07 02:53:30;;;;;;;7.57;5.93;;;12.50;99.90;;;;;;5070213;28;20047;-58
2022/08/07 02:55:58;;;;;;;7.97;5.63;;;12.40;99.90;;;;;;5055162;28;20041;-58
2022/08/07 02:58:25;;;;;;;6.32;5.57;;;12.50;99.90;;;;;;5055078;28;20467;-58
2022/08/07 03:00:55;;;;;;;9.05;6.57;;;12.60;99.90;;;;;;5055238;28;20095;-58
2022/08/07 03:03:22;;;;;;;7.10;5.95;;;12.60;99.90;;;;;;5054780;28;20127;-58
2022/08/07 03:05:52;;;;;;;7.95;6.68;;;12.60;99.90;;;;;;5054783;28;20033;-57
2022/08/07 03:08:20;;;;;;;7.75;6.25;;;12.60;99.90;;;;;;5054616;28;20037;-57
2022/08/07 03:10:46;;;;;;;8.88;6.38;;;12.50;99.90;;;;;;5054954;28;20075;-57
2022/08/07 03:13:14;;;;;;;8.45;6.85;;;12.30;99.90;;;;;;5054979;28;20087;-57
2022/08/07 03:15:40;;;;;;;9.48;7.07;;;12.30;99.90;;;;;;5054414;28;20128;-58
2022/08/07 03:18:06;;;;;;;7.13;6.38;;;12.20;99.90;;;;;;5054840;28;20408;-58
2022/08/07 03:20:33;;;;;;;9.75;7.20;;;12.30;99.90;;;;;;5054487;28;20041;-57
2022/08/07 03:22:58;;;;;;;8.65;6.20;;;12.20;99.90;;;;;;5054634;28;20051;-58
2022/08/07 03:25:27;;;;;;;10.05;6.68;;;12.20;99.90;;;;;;5054655;28;20472;-58
2022/08/07 03:27:53;;;;;;;8.25;7.38;;;12.20;99.90;;;;;;5054761;28;20029;-57
2022/08/07 03:30:21;;;;;;;8.90;6.53;;;12.20;99.90;;;;;;5062546;28;20040;-58
2022/08/07 03:32:48;;;;;;;9.20;6.65;;;12.20;99.90;;;;;;5074390;28;20413;-57
2022/08/07 03:35:16;;;;;;;9.73;7.03;;;12.10;99.90;;;;;;5074264;28;20040;-58
2022/08/07 03:37:45;;;;;;;6.90;6.15;;;12.20;99.90;;;;;;5074371;28;20116;-57
2022/08/07 03:40:12;;;;;;;8.13;6.15;;;12.10;99.90;;;;;;5074304;28;20036;-58
2022/08/07 03:42:38;;;;;;;7.63;6.82;;;12.20;99.90;;;;;;5072888;28;20422;-58
2022/08/07 03:45:04;;;;;;;9.15;6.53;;;12.20;99.90;;;;;;5074059;28;20041;-59
2022/08/07 03:47:31;;;;;;;9.05;6.75;;;12.10;99.90;;;;;;5074578;28;20033;-58
2022/08/07 03:49:57;;;;;;;10.63;6.95;;;12.10;99.90;;;;;;5074281;28;20119;-58
2022/08/07 03:52:27;;;;;;;8.18;7.00;;;12.00;99.90;;;;;;5074187;28;20044;-59
2022/08/07 03:54:57;;;;;;;10.70;7.30;;;12.10;99.90;;;;;;5074259;28;20036;-59
2022/08/07 03:57:25;;;;;;;10.98;6.93;;;12.10;99.90;;;;;;5073971;28;20044;-59
2022/08/07 03:59:51;;;;;;;11.85;7.43;;;12.10;99.90;;;;;;5073833;28;20033;-58
2022/08/07 04:02:17;;;;;;;8.55;5.97;;;12.10;99.90;;;;;;5073849;28;20036;-59
2022/08/07 04:04:43;;;;;;;8.52;6.40;;;12.00;99.90;;;;;;5073877;28;20032;-58
2022/08/07 04:07:09;;;;;;;10.48;6.30;;;12.00;99.90;;;;;;5068675;28;20029;-58
2022/08/07 04:09:35;;;;;;;13.23;7.00;;;11.90;99.90;;;;;;5054132;28;20036;-58
2022/08/07 04:12:02;;;;;;;8.32;6.15;;;12.00;99.90;;;;;;5053425;28;20527;-58
2022/08/07 04:14:28;;;;;;;8.35;6.88;;;12.00;99.90;;;;;;5053775;28;20033;-58
2022/08/07 04:16:54;;;;;;;8.60;6.13;;;12.00;99.90;;;;;;5053894;28;20037;-58
2022/08/07 04:19:19;;;;;;;11.00;6.88;;;12.10;99.90;;;;;;5053880;28;20047;-59
2022/08/07 04:21:45;;;;;;;8.18;5.65;;;12.10;99.90;;;;;;5053857;28;20041;-58
2022/08/07 04:24:12;;;;;;;9.77;6.75;;;12.10;99.90;;;;;;5054074;28;20095;-59
2022/08/07 04:26:39;;;;;;;8.35;6.55;;;12.20;99.90;;;;;;5052456;28;20053;-57
2022/08/07 04:29:07;;;;;;;10.43;5.68;;;12.20;99.90;;;;;;5053664;28;20069;-58
2022/08/07 04:31:33;;;;;;;7.72;5.72;;;12.10;99.90;;;;;;5053776;28;20040;-58
2022/08/07 04:33:59;;;;;;;7.30;6.47;;;12.10;99.90;;;;;;5053379;28;20494;-58
2022/08/07 04:36:24;;;;;;;10.55;6.82;;;12.20;99.90;;;;;;5052970;28;20036;-58
2022/08/07 04:38:50;;;;;;;9.45;7.00;;;12.10;99.90;;;;;;5070205;28;20379;-57
2022/08/07 04:41:16;;;;;;;8.40;6.38;;;12.10;99.90;;;;;;5073030;28;20053;-58
2022/08/07 04:43:43;;;;;;;8.10;6.07;;;12.10;99.90;;;;;;5073385;28;20115;-58
2022/08/07 04:46:15;;;;;;;7.50;6.70;;;12.00;99.90;;;;;;5073653;28;20040;-57
2022/08/07 04:48:45;;;;;;;8.50;7.07;;;12.10;99.90;;;;;;5077503;28;20048;-58
2022/08/07 04:51:37;;;;;;;9.25;6.03;;;12.20;99.90;;;;;;5077684;28;20436;-60
2022/08/07 04:54:06;;;;;;;9.65;6.32;;;12.30;99.90;;;;;;5076735;28;20044;-58
2022/08/07 04:56:35;;;;;;;7.00;6.07;;;12.40;99.90;;;;;;5077218;28;20119;-57
2022/08/07 04:59:28;;;;;;;10.13;5.47;;;12.40;99.90;;;;;;5077448;28;20051;-58
2022/08/07 05:02:02;;;;;;;9.32;4.95;;;12.40;99.90;;;;;;5076784;28;20411;-58
2022/08/07 05:04:40;;;;;;;7.43;5.40;;;12.40;99.90;;;;;;5077160;28;20047;-58
2022/08/07 05:07:36;;;;;;;8.43;5.97;;;12.50;99.90;;;;;;5077089;28;20475;-58
2022/08/07 05:10:15;;;;;;;8.98;5.88;;;12.50;99.90;;;;;;5077266;28;20044;-58
2022/08/07 05:12:49;;;;;;;12.00;5.57;;;12.60;99.90;;;;;;5076851;28;20047;-59
2022/08/07 05:15:25;;;;;;;10.35;5.82;;;12.70;99.90;;;;;;5077041;28;20048;-59
2022/08/07 05:17:57;;;;;;;7.97;5.80;;;12.70;99.90;;;;;;5077106;28;20043;-59
2022/08/07 05:20:29;;;;;;;12.40;5.88;;;12.70;99.90;;;;;;5077174;28;20044;-60
2022/08/07 05:23:00;;;;;;;7.13;5.55;;;12.80;99.90;;;;;;5076652;28;20051;-59
2022/08/07 05:25:27;;;;;;;9.15;5.60;;;12.90;99.90;;;;;;5076454;28;20062;-59
2022/08/07 05:27:54;;;;;;;9.88;6.70;;;13.00;99.90;;;;;;5076572;28;20045;-58
2022/08/07 05:30:23;;;;;;;9.82;6.35;;;13.00;99.90;;;;;;5076886;28;20044;-59
2022/08/07 05:32:49;;;;;;;6.97;5.78;;;13.20;99.90;;;;;;5076889;28;20037;-58
2022/08/07 05:35:17;;;;;;;7.68;6.35;;;13.30;99.90;;;;;;5076418;28;20044;-58
2022/08/07 05:37:45;;;;;;;7.07;5.90;;;13.40;99.90;;;;;;5076397;28;20040;-58
2022/08/07 05:40:11;;;;;;;6.57;5.53;;;13.40;99.90;;;;;;5076369;28;20163;-57
2022/08/07 05:42:37;;;;;;;7.75;6.47;;;13.50;99.90;;;;;;5076467;28;20508;-59
2022/08/07 05:45:05;;;;;;;6.93;5.65;;;13.70;99.90;;;;;;5076591;28;20041;-59
2022/08/07 05:47:32;;;;;;;7.18;5.68;;;13.70;99.90;;;;;;5076574;28;20039;-59
2022/08/07 05:49:59;;;;;;;6.68;5.55;;;13.80;99.90;;;;;;5076155;28;20075;-58
2022/08/07 05:52:25;;;;;;;9.30;6.35;;;13.90;99.90;;;;;;5076504;28;20032;-59
2022/08/07 05:54:51;;;;;;;7.10;5.85;;;14.00;99.90;;;;;;5075269;28;20051;-58
2022/08/07 05:57:17;;;;;;;6.38;5.45;;;14.10;99.90;;;;;;5074724;28;20593;-58
2022/08/07 05:59:45;;;;;;;7.88;5.30;;;14.20;99.90;;;;;;5076327;28;20101;-57
2022/08/07 06:02:14;;;;;;;7.13;4.93;;;14.30;99.90;;;;;;5075088;28;20033;-58
2022/08/07 06:04:47;;;;;;;7.03;5.72;;;14.50;99.90;;;;;;5076418;28;20032;-57
2022/08/07 06:07:14;;;;;;;10.10;6.28;;;14.60;99.90;;;;;;5076012;28;20074;-58
2022/08/07 06:09:40;;;;;;;9.27;5.95;;;14.70;99.90;;;;;;5074617;28;20477;-58
2022/08/07 06:12:06;;;;;;;5.63;4.82;;;14.70;99.90;;;;;;5054532;28;20032;-59
2022/08/07 06:14:32;;;;;;;6.43;5.18;;;14.90;99.90;;;;;;5063913;28;20062;-58
2022/08/07 06:16:59;;;;;;;6.78;5.05;;;15.00;99.90;;;;;;5075329;28;20032;-58
2022/08/07 06:19:26;;;;;;;7.70;5.30;;;15.30;99.90;;;;;;5069989;28;20048;-58
2022/08/07 06:21:53;;;;;;;6.22;4.70;;;15.40;99.90;;;;;;5075461;28;20033;-58
2022/08/07 06:24:19;;;;;;;6.90;5.35;;;15.60;99.90;;;;;;5075635;28;20029;-59
2022/08/07 06:26:45;;;;;;;7.18;4.63;;;15.70;99.90;;;;;;5075329;28;20040;-59
2022/08/07 06:29:10;;;;;;;7.70;4.85;;;15.80;99.90;;;;;;5075170;28;20372;-59
2022/08/07 06:31:36;;;;;;;6.63;4.70;;;16.00;99.90;;;;;;5075288;28;20041;-59
2022/08/07 06:34:02;;;;;;;7.32;4.93;;;16.10;99.90;;;;;;5075616;28;20036;-59
2022/08/07 06:36:27;;;;;;;6.32;5.38;;;16.50;99.90;;;;;;5075258;28;20142;-58
2022/08/07 06:38:53;;;;;;;7.53;4.90;;;16.60;99.90;;;;;;5074970;28;20122;-58
2022/08/07 06:41:30;;;;;;;6.82;5.13;;;16.80;99.90;;;;;;5074849;28;20068;-58
2022/08/07 06:43:57;;;;;;;5.85;4.72;;;17.00;99.90;;;;;;5075045;28;20037;-57
2022/08/07 06:46:23;;;;;;;7.63;4.45;;;17.30;99.90;;;;;;5074728;28;20037;-58
2022/08/07 06:48:49;;;;;;;7.03;4.95;;;17.50;99.90;;;;;;5073523;28;20454;-58
2022/08/07 06:51:19;;;;;;;6.53;4.78;;;17.70;99.90;;;;;;5074908;28;20033;-59
2022/08/07 06:53:46;;;;;;;6.65;5.20;;;18.00;99.90;;;;;;5074952;28;20090;-58
2022/08/07 06:56:13;;;;;;;6.13;4.57;;;18.10;99.90;;;;;;5074753;28;20044;-58
2022/08/07 06:58:39;;;;;;;10.65;4.60;;;18.40;99.90;;;;;;5074785;28;20048;-59
2022/08/07 07:01:07;;;;;;;8.48;4.50;;;18.70;99.90;;;;;;5074403;28;20600;-58
2022/08/07 07:03:36;;;;;;;5.75;4.43;;;18.90;99.90;;;;;;5074728;28;20111;-59
2022/08/07 07:06:01;;;;;;;;;;;19.00;99.90;;;;;;5074991;28;20045;-57
2022/08/07 07:08:28;;;;;;;6.70;4.40;;;19.30;99.90;;;;;;5074612;28;20439;-57
2022/08/07 07:10:55;;;;;;;5.32;3.85;;;19.60;99.90;;;;;;5073909;28;20052;-57
2022/08/07 07:13:33;;;;;;;5.45;3.38;;;19.90;99.90;;;;;;5074437;28;20391;-58
2022/08/07 07:16:03;;;;;;;6.07;3.20;;;20.00;99.90;;;;;;5074412;28;20047;-57
2022/08/07 07:18:41;;;;;;;5.90;3.25;;;20.30;99.90;;;;;;5074186;28;20573;-57
2022/08/07 07:21:14;;;;;;;3.22;2.92;;;20.60;99.90;;;;;;5074342;28;20033;-58
2022/08/07 07:23:40;;;;;;;4.93;3.03;;;20.80;99.90;;;;;;5074383;28;20044;-58
2022/08/07 07:26:11;;;;;;;3.78;2.60;;;21.00;99.90;;;;;;5074073;28;20110;-58
2022/08/07 07:28:39;;;;;;;4.47;2.75;;;21.20;99.90;;;;;;5074608;28;20356;-58
2022/08/07 07:31:31;;;;;;;4.05;3.25;;;21.50;99.90;;;;;;5074273;28;20047;-58
2022/08/07 07:34:05;;;;;;;3.65;2.72;;;21.60;99.90;;;;;;5074183;28;20072;-57
2022/08/07 07:36:32;;;;;;;3.28;2.60;;;21.90;99.90;;;;;;5074176;28;20048;-57
2022/08/07 07:39:00;;;;;;;5.65;3.00;;;22.00;99.90;;;;;;5074066;28;20040;-59
2022/08/07 07:41:28;;;;;;;4.90;2.63;;;22.20;99.90;;;;;;5073726;28;20053;-58
2022/08/07 07:43:56;;;;;;;3.67;2.90;;;22.40;99.90;;;;;;5074027;28;20056;-58
2022/08/07 07:46:23;;;;;;;3.28;2.80;;;22.80;99.90;;;;;;5073918;28;20067;-58
2022/08/07 07:48:51;;;;;;;3.42;2.65;;;22.70;99.90;;;;;;5073903;28;20385;-58
2022/08/07 07:51:18;;;;;;;3.60;3.03;;;22.90;99.90;;;;;;5074376;28;20040;-59
2022/08/07 07:53:47;;;;;;;3.50;3.15;;;22.80;99.90;;;;;;5073951;28;20040;-58
2022/08/07 07:56:14;;;;;;;4.63;2.65;;;22.90;99.90;;;;;;5073915;28;20111;-59
2022/08/07 07:58:42;;;;;;;3.83;2.90;;;23.10;99.90;;;;;;5073733;28;20044;-58
2022/08/07 08:01:09;;;;;;;4.35;2.80;;;23.30;99.90;;;;;;5074357;28;20044;-58
2022/08/07 08:03:37;;;;;;;9.15;2.95;;;23.50;99.90;;;;;;5073574;28;20482;-59
2022/08/07 08:06:05;;;;;;;4.25;2.83;;;23.80;99.90;;;;;;5073753;28;20107;-58
2022/08/07 08:08:32;;;;;;;4.53;2.92;;;23.90;99.90;;;;;;5073561;28;20511;-58
2022/08/07 08:11:02;;;;;;;5.95;3.20;;;23.90;99.90;;;;;;5073732;28;20047;-59
2022/08/07 08:13:29;;;;;;;4.38;2.90;;;23.70;99.90;;;;;;5073628;28;20044;-58
2022/08/07 08:16:00;;;;;;;4.40;3.00;;;23.70;99.90;;;;;;5073955;28;20056;-58
2022/08/07 08:18:27;;;;;;;4.80;3.15;;;23.90;99.90;;;;;;5073546;28;20040;-58
2022/08/07 08:20:54;;;;;;;4.97;3.55;;;23.70;99.90;;;;;;5073698;28;20036;-58
2022/08/07 08:28:52;;;;;;;11.55;4.22;;;23.90;99.90;;;;;;5077467;28;20051;-58
2022/08/07 08:31:29;;;;;;;5.72;2.60;;;23.60;99.90;;;;;;5077499;28;20483;-58
2022/08/07 08:33:56;;;;;;;3.85;2.80;;;23.70;99.30;;;;;;5077589;28;20072;-58
2022/08/07 08:36:25;;;;;;;4.07;3.35;;;23.90;99.90;;;;;;5077533;28;20053;-58
2022/08/07 08:38:54;;;;;;;6.15;3.15;;;24.10;99.90;;;;;;5077312;28;20040;-58
2022/08/07 08:41:30;;;;;;;3.08;2.70;;;24.30;99.90;;;;;;5076897;28;20059;-57
2022/08/07 08:44:11;;;;;;;5.82;2.67;;;24.20;99.70;;;;;;5077560;28;20403;-58
2022/08/07 08:46:43;;;;;;;4.75;3.22;;;24.20;99.90;;;;;;5077256;28;20053;-58
2022/08/07 08:49:39;;;;;;;3.90;2.90;;;24.10;99.90;;;;;;5077231;28;20403;-57
2022/08/07 08:52:31;;;;;;;4.38;2.60;;;24.00;99.90;;;;;;5077169;28;20155;-57
2022/08/07 08:55:19;;;;;;;5.70;2.58;;;24.80;99.90;;;;;;5077201;28;20043;-58
2022/08/07 08:58:20;;;;;;;6.68;2.90;;;25.60;99.60;;;;;;5077149;28;20056;-57
2022/08/07 09:00:51;;;;;;;4.03;2.63;;;24.60;99.30;;;;;;5074874;28;20076;-57
2022/08/07 09:03:31;;;;;;;4.18;2.53;;;25.10;99.30;;;;;;5076713;28;20032;-58
2022/08/07 09:06:08;;;;;;;3.10;2.67;;;25.70;98.60;;;;;;5076927;28;20041;-57
2022/08/07 09:08:56;;;;;;;3.78;2.63;;;25.50;98.60;;;;;;5068018;28;20029;-58
2022/08/07 09:11:45;;;;;;;3.25;2.50;;;25.90;98.90;;;;;;5072276;28;20040;-57
2022/08/07 09:14:37;;;;;;;2.67;2.20;;;26.20;98.30;;;;;;5061455;28;20028;-58
2022/08/07 09:17:41;;;;;;;3.85;3.20;;;26.40;97.80;;;;;;5052168;28;20088;-59
2022/08/07 09:20:43;;;;;;;3.40;2.53;;;25.70;97.70;;;;;;5052681;28;20037;-58
2022/08/07 09:23:30;;;;;;;3.28;2.70;;;26.20;98.30;;;;;;5053958;28;20641;-58
2022/08/07 09:26:01;;;;;;;3.58;2.33;;;26.30;96.50;;;;;;5052316;28;20192;-59
2022/08/07 09:28:34;;;;;;;2.95;2.15;;;26.20;96.90;;;;;;5053335;28;20041;-63
2022/08/07 09:31:12;;;;;;;3.78;2.70;;;26.80;96.40;;;;;;5052013;28;20102;-63
2022/08/07 09:33:47;;;;;;;3.07;2.30;;;26.10;97.20;;;;;;5051312;28;20037;-59
2022/08/07 09:36:39;;;;;;;2.58;1.90;;;25.90;97.00;;;;;;5053054;28;20049;-57
2022/08/07 09:39:38;;;;;;;4.35;2.10;;;27.30;95.60;;;;;;5034844;28;20045;-63
2022/08/07 09:42:36;;;;;;;5.05;2.03;;;27.40;95.40;;;;;;5050023;28;20052;-64
2022/08/07 09:45:22;;;;;;;2.60;2.30;;;28.60;95.50;;;;;;5048300;28;20065;-63
2022/08/07 09:48:18;;;;;;;2.47;1.98;;;29.40;94.70;;;;;;5054015;28;20519;-63
2022/08/07 09:50:55;;;;;;;2.58;2.13;;;30.00;93.60;;;;;;5053893;28;20056;-63
2022/08/07 09:53:24;;;;;;;2.88;2.20;;;29.00;93.90;;;;;;5058124;28;20044;-63
2022/08/07 09:56:23;;;;;;;2.97;1.88;;;28.70;94.30;;;;;;5074795;28;20048;-63
2022/08/07 09:59:23;;;;;;;5.32;2.20;;;28.40;94.70;;;;;;5055993;28;20037;-64
2022/08/07 10:02:18;;;;;;;1.87;1.63;;;29.00;94.70;;;;;;5060703;28;20487;-63
2022/08/07 10:04:44;;;;;;;2.97;1.80;;;28.80;93.60;;;;;;5057060;28;20634;-57
2022/08/07 10:07:31;;;;;;;3.90;2.03;;;28.90;93.50;;;;;;5057803;28;20037;-58
2022/08/07 10:10:18;;;;;;;3.33;1.90;;;29.60;93.30;;;;;;5069876;28;20386;-56
2022/08/07 10:13:09;;;;;;;2.67;1.90;;;28.90;92.60;;;;;;5055880;28;20131;-57
2022/08/07 10:16:01;;;;;;;4.20;1.80;;;28.10;93.30;;;;;;5062138;28;20700;-57
2022/08/07 10:18:56;;;;;;;7.40;2.20;;;29.10;93.40;;;;;;5028653;28;20052;-57
2022/08/07 10:22:06;;;;;;;4.43;1.90;;;29.30;93.20;;;;;;5017086;28;20476;-58
2022/08/07 10:25:03;;;;;;;4.22;1.95;;;28.80;93.80;;;;;;4975056;28;20105;-57
2022/08/07 10:27:53;;;;;;;4.25;1.63;;;28.70;94.40;;;;;;4973873;28;20068;-57
2022/08/07 10:30:32;;;;;;;5.38;2.63;;;29.30;92.50;;;;;;4974912;28;20402;-57
2022/08/07 10:33:04;;;;;;;1.65;1.48;;;29.70;92.60;;;;;;4974970;28;20051;-58
2022/08/07 10:35:34;;;;;;;2.05;1.65;;;29.40;92.60;;;;;;4973881;28;20560;-58
2022/08/07 10:38:24;;;;;;;2.55;1.70;;;30.20;93.10;;;;;;4972816;28;20074;-63
2022/08/07 10:41:13;;;;;;;3.65;2.30;;;29.40;93.10;;;;;;4973297;28;20059;-58
2022/08/07 10:44:01;;;;;;;3.00;1.63;;;29.50;93.00;;;;;;4957831;28;20047;-63
2022/08/07 10:46:34;;;;;;;2.30;1.63;;;29.20;92.80;;;;;;4974228;28;20042;-63
2022/08/07 10:49:19;;;;;;;2.50;1.77;;;29.40;92.70;;;;;;4958618;28;20064;-64
2022/08/07 10:52:05;;;;;;;11.65;2.78;;;29.50;92.70;;;;;;4974106;28;20038;-64
2022/08/07 10:54:35;;;;;;;1.48;1.38;;;30.10;92.20;;;;;;4981815;28;20047;-63
2022/08/07 10:57:10;;;;;;;3.42;1.77;;;30.20;92.80;;;;;;5033022;28;20052;-63
2022/08/07 10:59:59;;;;;;;2.38;1.60;;;30.20;92.50;;;;;;5032632;28;20049;-62
2022/08/07 11:02:25;;;;;;;;;;;29.90;92.30;;;;;;5053998;28;20052;-63
2022/08/07 11:05:15;;;;;;;2.63;1.70;;;29.90;92.50;;;;;;5054725;28;19924;-62
2022/08/07 11:07:58;;;;;;;2.90;1.60;;;29.80;91.10;;;;;;5064119;28;20084;-63
2022/08/07 11:10:39;;;;;;;3.85;1.85;;;30.80;91.00;;;;;;5075089;28;20036;-62
2022/08/07 11:13:38;;;;;;;3.20;1.80;;;31.00;92.10;;;;;;5074693;28;20036;-63
2022/08/07 11:16:21;;;;;;;2.92;1.67;;;29.90;91.50;;;;;;5074776;28;20487;-62
2022/08/07 11:18:57;;;;;;;1.67;1.58;;;30.30;93.00;;;;;;5074988;28;20383;-62
2022/08/07 11:21:36;;;;;;;2.28;1.55;;;29.90;92.70;;;;;;5074471;28;20037;-62
2022/08/07 11:24:17;;;;;;;2.90;1.70;;;30.20;91.30;;;;;;5073523;28;20131;-63
2022/08/07 11:27:06;;;;;;;1.50;1.40;;;29.20;91.80;;;;;;5074783;28;20044;-63
2022/08/07 11:29:47;;;;;;;3.55;1.55;;;28.70;91.60;;;;;;5073241;28;20482;-63
2022/08/07 11:32:19;;;;;;;5.45;1.65;;;28.80;91.60;;;;;;5074190;28;20032;-63
2022/08/07 11:35:07;;;;;;;2.25;1.63;;;30.30;92.40;;;;;;5074019;28;20040;-63
2022/08/07 11:37:40;;;;;;;1.77;1.30;;;31.20;91.20;;;;;;5070234;28;20060;-63
2022/08/07 11:40:40;;;;;;;1.92;1.67;;;31.60;90.70;;;;;;5073431;28;20042;-64
2022/08/07 11:43:17;;;;;;;2.08;1.70;;;31.50;90.30;;;;;;5072947;28;20036;-63
2022/08/07 11:45:49;;;;;;;3.67;1.55;;;31.10;91.90;;;;;;5073887;28;20044;-63
2022/08/07 11:48:30;;;;;;;1.70;1.20;;;31.00;91.30;;;;;;5073682;28;20078;-63
2022/08/07 11:51:34;;;;;;;2.88;1.42;;;30.90;90.70;;;;;;5074018;28;20102;-63
2022/08/07 11:54:21;;;;;;;2.97;1.75;;;31.40;91.40;;;;;;5073897;28;20044;-64
2022/08/07 11:57:17;;;;;;;1.85;1.50;;;31.20;91.60;;;;;;5073507;28;20056;-63
2022/08/07 12:00:10;;;;;;;2.20;1.48;;;31.00;90.90;;;;;;5073837;28;20091;-63
2022/08/07 12:03:21;;;;;;;2.53;1.40;;;30.90;92.00;;;;;;5072715;28;20440;-63
2022/08/07 12:06:05;;;;;;;;;;;31.00;90.50;;;;;;5051871;28;20053;-64
2022/08/07 12:08:54;;;;;;;2.25;1.38;;;31.30;91.80;;;;;;5051647;28;19956;-63
2022/08/07 12:11:33;;;;;;;1.10;1.00;;;30.90;90.30;;;;;;5051436;28;20045;-63
2022/08/07 12:13:58;;;;;;;;;;;30.80;91.20;;;;;;5051901;28;20476;-63
2022/08/07 12:16:28;;;;;;;1.95;1.38;;;30.90;90.60;;;;;;5051460;28;19917;-63
2022/08/07 12:18:54;;;;;;;2.95;1.50;;;30.70;91.30;;;;;;5051462;28;20152;-63
2022/08/07 12:21:40;;;;;;;1.80;1.15;;;30.80;91.60;;;;;;5051515;28;20040;-64
2022/08/07 12:24:18;;;;;;;1.77;1.33;;;30.90;90.60;;;;;;5051504;28;20045;-63
2022/08/07 12:26:52;;;;;;;2.55;1.35;;;30.50;91.40;;;;;;5051509;28;20056;-63
2022/08/07 12:29:29;;;;;;;5.22;1.85;;;29.80;91.60;;;;;;5051566;28;20128;-63
2022/08/07 12:31:57;;;;;;;3.63;1.15;;;29.30;92.30;;;;;;5051420;28;20094;-63
2022/08/07 12:34:27;;;;;;;1.25;1.00;;;30.10;92.10;;;;;;5051232;28;20409;-63
2022/08/07 12:36:55;;;;;;;1.67;1.10;;;30.20;92.10;;;;;;5051144;28;20515;-63
2022/08/07 12:39:23;;;;;;;7.82;1.50;;;29.50;92.10;;;;;;5051327;28;20090;-63
2022/08/07 12:41:51;;;;;;;3.72;2.15;;;28.70;92.40;;;;;;5044384;28;20072;-64
2022/08/07 12:44:20;;;;;;;2.35;1.83;;;28.10;93.30;;;;;;5073410;28;20083;-63
2022/08/07 12:47:14;;;;;;;1.73;1.30;;;27.60;94.30;;;;;;5073366;28;20055;-64
2022/08/07 12:49:49;;;;;;;3.95;2.30;;;27.40;94.10;;;;;;5073197;28;20047;-64
2022/08/07 12:52:24;;;;;;;2.42;1.58;;;27.00;94.70;;;;;;5073387;28;20040;-63
2022/08/07 12:54:54;;;;;;;2.35;1.70;;;26.50;94.80;;;;;;5073335;28;20028;-63
2022/08/07 12:57:24;;;;;;;2.42;1.85;;;26.30;95.10;;;;;;5073354;28;20040;-64
2022/08/07 12:59:52;;;;;;;2.88;1.77;;;25.90;95.10;;;;;;5073226;28;20041;-64
2022/08/07 13:02:43;;;;;;;2.15;1.52;;;25.60;94.80;;;;;;5073183;28;20044;-64
2022/08/07 13:05:23;;;;;;;3.08;2.17;;;25.40;96.20;;;;;;5073312;28;20040;-63
2022/08/07 13:07:49;;;;;;;3.63;1.73;;;25.30;96.00;;;;;;5074353;28;20119;-64
2022/08/07 13:10:26;;;;;;;3.13;1.80;;;25.20;96.40;;;;;;5076830;28;20163;-63
2022/08/07 13:13:19;;;;;;;3.55;2.42;;;25.20;96.60;;;;;;5076806;28;20044;-66
2022/08/07 13:16:15;;;;;;;3.47;1.83;;;25.10;95.60;;;;;;5076097;28;20043;-65
2022/08/07 13:19:05;;;;;;;3.47;2.17;;;25.10;96.00;;;;;;5077063;28;20040;-64
2022/08/07 13:21:32;;;;;;;;;;;24.70;95.90;;;;;;5077161;28;20115;-64
2022/08/07 13:24:33;;;;;;;2.63;1.98;;;24.50;97.10;;;;;;5076370;28;20330;-64